Time;durP1;ratioP1;P1;durP2;ratioP2;P2;SDS_P1;SDS_P2;PMS_P1;PMS_P2;Temp;Humidity;BMP_temperature;BMP_pressure;BME280_temperature;BME280_humidity;BME280_pressure;Samples;Min_cycle;Max_cycle;Signal;HPM_P1;HPM_P2
2022/10/30 00:02:22;;;;;;;;;;;;;;;14.68;49.40;99515.31;5009622;28;19928;-75
2022/10/30 00:04:47;;;;;;;;;;;;;;;14.64;49.38;99512.94;5009930;28;20715;-73
2022/10/30 00:07:13;;;;;;;;;;;;;;;14.64;49.62;99514.72;5011633;28;20446;-76
2022/10/30 00:09:38;;;;;;;;;;;;;;;14.63;49.48;99506.00;5010213;28;19921;-75
2022/10/30 00:12:03;;;;;;;;;;;;;;;14.60;49.48;99511.50;5009623;28;19925;-73
2022/10/30 00:14:29;;;;;;;;;;;;;;;14.59;49.47;99512.44;5004741;28;20004;-75
2022/10/30 00:16:54;;;;;;;;;;;;;;;14.60;49.65;99508.06;5030923;28;19917;-75
2022/10/30 00:19:19;;;;;;;;;;;;;;;14.58;49.52;99504.66;5013786;28;19964;-75
2022/10/30 00:21:45;;;;;;;;;;;;;;;14.55;49.37;99503.16;5031557;28;19923;-74
2022/10/30 00:24:10;;;;;;;;;;;;;;;14.53;49.41;99493.72;5013385;28;19917;-74
2022/10/30 00:26:35;;;;;;;;;;;;;;;14.51;49.57;99495.63;5031468;28;19917;-75
2022/10/30 00:29:01;;;;;;;;;;;;;;;14.47;49.75;99495.06;5030055;28;19917;-75
2022/10/30 00:31:26;;;;;;;;;;;;;;;14.45;49.53;99494.31;5013503;28;19921;-75
2022/10/30 00:33:51;;;;;;;;;;;;;;;14.45;49.47;99486.44;5013857;28;20364;-74
2022/10/30 00:36:17;;;;;;;;;;;;;;;14.44;49.62;99490.03;5013595;28;20368;-74
2022/10/30 00:38:42;;;;;;;;;;;;;;;14.41;49.72;99480.59;5010819;28;20012;-75
2022/10/30 00:41:12;;;;;;;;;;;;;;;14.39;49.39;99484.31;5013518;28;19917;-74
2022/10/30 00:43:38;;;;;;;;;;;;;;;14.39;49.70;99482.53;5013616;28;20012;-75
2022/10/30 00:46:26;;;;;;;;;;;;;;;14.39;49.81;99479.06;5013361;28;20008;-74
2022/10/30 00:48:59;;;;;;;;;;;;;;;14.31;49.64;99490.19;5002582;28;20377;-74
2022/10/30 00:51:24;;;;;;;;;;;;;;;14.29;49.88;99482.44;5031041;28;20392;-74
2022/10/30 00:53:50;;;;;;;;;;;;;;;14.25;49.95;99485.44;5013712;28;19917;-74
2022/10/30 00:56:17;;;;;;;;;;;;;;;14.26;49.96;99481.81;5013367;28;20464;-75
2022/10/30 00:58:43;;;;;;;;;;;;;;;14.19;50.07;99475.41;5013112;28;19928;-73
2022/10/30 01:01:10;;;;;;;;;;;;;;;14.20;50.36;99479.69;4996957;28;19947;-74
2022/10/30 01:03:36;;;;;;;;;;;;;;;14.17;50.31;99474.69;5013526;28;19917;-73
2022/10/30 01:06:02;;;;;;;;;;;;;;;14.16;50.12;99465.16;5013251;28;19921;-76
2022/10/30 01:08:27;;;;;;;;;;;;;;;14.13;50.49;99466.22;5013310;28;20391;-75
2022/10/30 01:10:52;;;;;;;;;;;;;;;14.13;50.21;99462.78;5013660;28;19917;-76
2022/10/30 01:13:18;;;;;;;;;;;;;;;14.10;50.52;99464.69;5017173;28;20383;-76
2022/10/30 01:16:13;;;;;;;;;;;;;;;14.11;50.48;99465.50;5017012;28;20027;-76
2022/10/30 01:18:53;;;;;;;;;;;;;;;14.09;50.36;99457.75;5001430;28;19971;-75
2022/10/30 01:21:25;;;;;;;;;;;;;;;14.06;50.54;99452.75;5014074;28;19923;-75
2022/10/30 01:24:04;;;;;;;;;;;;;;;14.03;50.55;99452.16;5029477;28;20414;-75
2022/10/30 01:26:47;;;;;;;;;;;;;;;14.04;50.75;99456.44;5016893;28;19928;-75
2022/10/30 01:29:25;;;;;;;;;;;;;;;14.03;50.56;99450.38;5012315;28;20347;-75
2022/10/30 01:31:56;;;;;;;;;;;;;;;14.01;50.69;99456.69;5029098;28;19921;-75
2022/10/30 01:34:36;;;;;;;;;;;;;;;14.01;50.78;99446.19;5034592;28;19921;-75
2022/10/30 01:37:02;;;;;;;;;;;;;;;13.97;50.68;99437.72;5032712;28;19944;-75
2022/10/30 01:39:30;;;;;;;;;;;;;;;13.92;50.96;99435.47;5015320;28;19987;-75
2022/10/30 01:41:55;;;;;;;;;;;;;;;13.90;50.53;99436.56;5016593;28;19924;-76
2022/10/30 01:44:22;;;;;;;;;;;;;;;13.88;50.88;99434.06;5034243;28;20008;-75
2022/10/30 01:47:07;;;;;;;;;;;;;;;13.88;50.65;99438.44;5016511;28;19917;-76
2022/10/30 01:49:32;;;;;;;;;;;;;;;13.88;50.90;99439.31;5012089;28;19917;-75
2022/10/30 01:52:00;;;;;;;;;;;;;;;13.89;50.77;99440.13;5016523;28;19917;-75
2022/10/30 01:54:46;;;;;;;;;;;;;;;13.87;50.88;99436.81;5034161;28;19918;-74
2022/10/30 01:57:22;;;;;;;;;;;;;;;13.83;50.74;99436.19;5012989;28;19939;-75
2022/10/30 01:59:47;;;;;;;;;;;;;;;13.83;50.87;99430.94;5016496;28;19928;-75
2022/10/30 02:02:13;;;;;;;;;;;;;;;13.81;51.10;99437.28;5033893;28;19917;-74
2022/10/30 02:04:38;;;;;;;;;;;;;;;13.78;51.35;99430.47;5016089;28;20320;-73
2022/10/30 02:07:03;;;;;;;;;;;;;;;13.78;50.86;99427.03;4999716;28;19991;-74
2022/10/30 02:09:29;;;;;;;;;;;;;;;13.76;50.97;99427.16;5033533;28;19928;-76
2022/10/30 02:11:54;;;;;;;;;;;;;;;13.70;51.11;99420.56;5016299;28;20479;-74
2022/10/30 02:14:23;;;;;;;;;;;;;;;13.68;51.24;99421.66;5033961;28;19921;-76
2022/10/30 02:16:49;;;;;;;;;;;;;;;13.68;50.99;99419.03;5015528;28;19951;-74
2022/10/30 02:19:14;;;;;;;;;;;;;;;13.69;50.95;99415.44;5015299;28;19921;-74
2022/10/30 02:21:40;;;;;;;;;;;;;;;13.66;50.97;99415.69;5015495;28;19927;-74
2022/10/30 02:24:05;;;;;;;;;;;;;;;13.65;50.93;99416.66;5014829;28;19921;-74
2022/10/30 02:26:30;;;;;;;;;;;;;;;13.62;51.07;99417.72;5015387;28;20408;-74
2022/10/30 02:28:56;;;;;;;;;;;;;;;13.60;51.09;99411.78;5015166;28;19917;-74
2022/10/30 02:31:21;;;;;;;;;;;;;;;13.60;50.95;99413.53;5030934;28;19921;-74
2022/10/30 02:33:46;;;;;;;;;;;;;;;13.55;50.92;99406.88;5015051;28;20058;-75
2022/10/30 02:36:14;;;;;;;;;;;;;;;13.53;51.33;99413.19;5032644;28;20398;-74
2022/10/30 02:38:39;;;;;;;;;;;;;;;13.53;51.29;99413.19;5030713;28;20303;-75
2022/10/30 02:41:05;;;;;;;;;;;;;;;13.49;51.68;99409.13;5014962;28;19931;-73
2022/10/30 02:43:30;;;;;;;;;;;;;;;13.48;51.37;99416.16;5015250;28;19921;-75
2022/10/30 02:45:56;;;;;;;;;;;;;;;13.48;51.72;99410.09;5014717;28;20408;-75
2022/10/30 02:48:21;;;;;;;;;;;;;;;13.46;51.71;99412.00;5032679;28;20366;-75
2022/10/30 02:50:46;;;;;;;;;;;;;;;13.44;51.53;99414.75;5014762;28;20019;-75
2022/10/30 02:53:11;;;;;;;;;;;;;;;13.40;51.58;99418.56;5014603;28;20004;-75
2022/10/30 02:55:37;;;;;;;;;;;;;;;13.41;51.66;99415.00;5032555;28;20296;-75
2022/10/30 02:58:02;;;;;;;;;;;;;;;13.40;52.07;99415.94;5014531;28;20071;-75
2022/10/30 03:00:27;;;;;;;;;;;;;;;13.38;52.14;99409.97;5030672;28;19917;-75
2022/10/30 03:02:53;;;;;;;;;;;;;;;13.38;51.86;99404.75;5015129;28;19917;-74
2022/10/30 03:05:18;;;;;;;;;;;;;;;13.38;52.08;99416.06;5014590;28;19940;-74
2022/10/30 03:07:47;;;;;;;;;;;;;;;13.38;52.06;99413.44;5013858;28;20387;-73
2022/10/30 03:10:12;;;;;;;;;;;;;;;13.38;52.13;99423.09;5029586;28;19975;-73
2022/10/30 03:12:37;;;;;;;;;;;;;;;13.38;51.97;99418.66;5014502;28;19921;-74
2022/10/30 03:15:03;;;;;;;;;;;;;;;13.37;52.29;99417.00;5029860;28;20008;-73
2022/10/30 03:17:28;;;;;;;;;;;;;;;13.38;52.06;99415.22;5031851;28;19956;-73
2022/10/30 03:19:54;;;;;;;;;;;;;;;13.33;52.05;99407.72;5014374;28;20380;-73
2022/10/30 03:22:19;;;;;;;;;;;;;;;13.32;52.30;99406.00;5014872;28;19917;-73
2022/10/30 03:24:44;;;;;;;;;;;;;;;13.30;52.31;99413.16;5014172;28;19928;-73
2022/10/30 03:27:10;;;;;;;;;;;;;;;13.30;52.35;99412.31;5014654;28;19921;-73
2022/10/30 03:29:35;;;;;;;;;;;;;;;13.30;52.35;99418.41;5014472;28;20021;-72
2022/10/30 03:32:00;;;;;;;;;;;;;;;13.29;52.31;99408.03;5032448;28;20520;-73
2022/10/30 03:34:26;;;;;;;;;;;;;;;13.28;52.34;99415.03;5014157;28;19951;-73
2022/10/30 03:36:51;;;;;;;;;;;;;;;13.29;52.67;99413.28;5009285;28;19932;-73
2022/10/30 03:39:16;;;;;;;;;;;;;;;13.23;52.41;99417.19;5030462;28;20311;-73
2022/10/30 03:41:42;;;;;;;;;;;;;;;13.25;52.34;99404.81;5014613;28;20007;-73
2022/10/30 03:44:07;;;;;;;;;;;;;;;13.27;52.36;99404.69;5014150;28;20024;-73
2022/10/30 03:46:33;;;;;;;;;;;;;;;13.24;52.56;99405.75;5014397;28;19917;-73
2022/10/30 03:48:58;;;;;;;;;;;;;;;13.23;52.23;99413.75;5014457;28;19917;-73
2022/10/30 03:51:23;;;;;;;;;;;;;;;13.24;52.55;99407.56;5014072;28;19928;-73
2022/10/30 03:53:49;;;;;;;;;;;;;;;13.24;52.19;99408.38;5032069;28;19924;-73
2022/10/30 03:56:14;;;;;;;;;;;;;;;13.19;52.59;99411.34;5014180;28;19921;-74
2022/10/30 03:58:39;;;;;;;;;;;;;;;13.20;52.57;99413.03;5030292;28;19917;-73
2022/10/30 04:01:05;;;;;;;;;;;;;;;13.20;52.40;99409.56;5013987;28;19975;-73
2022/10/30 04:03:30;;;;;;;;;;;;;;;13.18;52.34;99407.06;5014044;28;20347;-73
2022/10/30 04:05:55;;;;;;;;;;;;;;;13.17;52.65;99408.03;5013794;28;19917;-72
2022/10/30 04:08:21;;;;;;;;;;;;;;;13.18;52.57;99404.44;5030907;28;20384;-72
2022/10/30 04:10:46;;;;;;;;;;;;;;;13.13;52.45;99401.34;5013862;28;20334;-75
2022/10/30 04:13:12;;;;;;;;;;;;;;;13.13;52.45;99401.34;5030326;28;19917;-72
2022/10/30 04:15:37;;;;;;;;;;;;;;;13.12;52.77;99409.31;5031340;28;19921;-74
2022/10/30 04:18:03;;;;;;;;;;;;;;;13.12;52.38;99412.75;5013465;28;19974;-73
2022/10/30 04:20:28;;;;;;;;;;;;;;;13.11;52.54;99403.25;5030912;28;19917;-75
2022/10/30 04:23:04;;;;;;;;;;;;;;;13.10;52.89;99405.97;5013231;28;20471;-73
2022/10/30 04:25:29;;;;;;;;;;;;;;;13.07;52.65;99399.19;5029728;28;20350;-73
2022/10/30 04:27:54;;;;;;;;;;;;;;;13.04;52.64;99402.03;5012859;28;20000;-73
2022/10/30 04:30:20;;;;;;;;;;;;;;;13.05;52.77;99403.72;5013164;28;19917;-73
2022/10/30 04:32:46;;;;;;;;;;;;;;;13.03;52.67;99401.19;5012989;28;19917;-74
2022/10/30 04:35:11;;;;;;;;;;;;;;;13.04;52.89;99402.03;5006990;28;19951;-73
2022/10/30 04:37:36;;;;;;;;;;;;;;;13.07;52.56;99416.69;5012429;28;19929;-73
2022/10/30 04:40:02;;;;;;;;;;;;;;;13.05;52.65;99413.38;5029283;28;19921;-73
2022/10/30 04:42:27;;;;;;;;;;;;;;;13.06;52.69;99409.78;5012864;28;19921;-73
2022/10/30 04:44:53;;;;;;;;;;;;;;;13.03;52.42;99411.69;5030404;28;19927;-73
2022/10/30 04:47:18;;;;;;;;;;;;;;;13.06;52.44;99410.59;5012398;28;20008;-73
2022/10/30 04:49:43;;;;;;;;;;;;;;;13.08;52.88;99407.88;5012450;28;19927;-73
2022/10/30 04:52:09;;;;;;;;;;;;;;;13.10;52.77;99409.44;5012871;28;19924;-75
2022/10/30 04:54:34;;;;;;;;;;;;;;;13.13;52.31;99408.38;5029131;28;20353;-73
2022/10/30 04:56:59;;;;;;;;;;;;;;;13.14;52.55;99410.03;5012807;28;20366;-73
2022/10/30 04:59:24;;;;;;;;;;;;;;;13.15;52.29;99409.09;5012243;28;19917;-74
2022/10/30 05:01:50;;;;;;;;;;;;;;;13.21;52.30;99409.44;5012241;28;19917;-74
2022/10/30 05:04:15;;;;;;;;;;;;;;;13.38;51.94;99407.34;5012282;28;19917;-74
2022/10/30 05:06:40;;;;;;;;;;;;;;;13.74;51.32;99403.66;5012747;28;20600;-75
2022/10/30 05:09:06;;;;;;;;;;;;;;;14.07;50.56;99414.19;5012524;28;19995;-73
2022/10/30 05:11:31;;;;;;;;;;;;;;;14.39;49.47;99408.13;5030037;28;19921;-74
2022/10/30 05:13:56;;;;;;;;;;;;;;;14.76;48.80;99408.59;5030264;28;19918;-75
2022/10/30 05:16:21;;;;;;;;;;;;;;;15.12;47.77;99406.50;5011981;28;20315;-74
2022/10/30 05:18:47;;;;;;;;;;;;;;;15.84;56.70;99414.44;5011934;28;19925;-75
2022/10/30 05:21:12;;;;;;;;;;;;;;;16.25;48.62;99415.22;5011518;28;19927;-76
2022/10/30 05:23:37;;;;;;;;;;;;;;;16.61;46.68;99418.16;5012892;28;19975;-74
2022/10/30 05:26:03;;;;;;;;;;;;;;;16.93;45.29;99409.94;5011980;28;20004;-74
2022/10/30 05:28:28;;;;;;;;;;;;;;;17.43;52.26;99413.31;5014866;28;19967;-79
2022/10/30 05:30:53;;;;;;;;;;;;;;;18.11;51.82;99413.00;5016933;28;20403;-75
2022/10/30 05:33:19;;;;;;;;;;;;;;;18.48;46.30;99404.09;5011823;28;20392;-74
2022/10/30 05:35:44;;;;;;;;;;;;;;;18.70;44.38;99405.44;5029557;28;20008;-74
2022/10/30 05:38:09;;;;;;;;;;;;;;;18.95;44.92;99408.31;5009578;28;19931;-74
2022/10/30 05:40:35;;;;;;;;;;;;;;;19.43;47.63;99409.59;5014225;28;20363;-76
2022/10/30 05:43:00;;;;;;;;;;;;;;;20.15;47.39;99408.41;5013002;28;19917;-73
2022/10/30 05:45:25;;;;;;;;;;;;;;;20.67;48.28;99416.13;5012081;28;20019;-74
2022/10/30 05:47:58;;;;;;;;;;;;;;;21.06;45.93;99414.59;5029316;28;20384;-73
2022/10/30 05:50:23;;;;;;;;;;;;;;;21.48;45.24;99409.03;5011823;28;19921;-74
2022/10/30 05:52:48;;;;;;;;;;;;;;;21.96;44.90;99400.19;5011974;28;19917;-71
2022/10/30 05:55:14;;;;;;;;;;;;;;;22.71;46.27;99407.53;5012039;28;20356;-76
2022/10/30 05:57:39;;;;;;;;;;;;;;;23.00;36.41;99405.94;5013863;28;19967;-75
2022/10/30 06:00:05;;;;;;;;;;;;;;;23.23;34.11;99407.72;5033282;28;19921;-75
2022/10/30 06:02:30;;;;;;;;;;;;;;;23.62;32.52;99409.28;5014863;28;19917;-74
2022/10/30 06:04:55;;;;;;;;;;;;;;;24.05;31.34;99404.09;5032882;28;19917;-75
2022/10/30 06:07:21;;;;;;;;;;;;;;;24.46;30.37;99408.00;5015838;28;20415;-75
2022/10/30 06:09:46;;;;;;;;;;;;;;;24.91;29.70;99414.78;5028664;28;19921;-77
2022/10/30 06:12:11;;;;;;;;;;;;;;;25.42;29.07;99412.88;5015715;28;19925;-74
2022/10/30 06:14:36;;;;;;;;;;;;;;;25.96;29.99;99403.25;5032463;28;19921;-78
2022/10/30 06:17:02;;;;;;;;;;;;;;;26.44;29.50;99397.84;5015111;28;20014;-77
2022/10/30 06:19:27;;;;;;;;;;;;;;;26.92;29.24;99402.19;5015402;28;19975;-76
2022/10/30 06:21:53;;;;;;;;;;;;;;;27.53;27.73;99401.06;5028702;28;19925;-77
2022/10/30 06:24:19;;;;;;;;;;;;;;;28.27;27.05;99398.03;5015789;28;19917;-77
2022/10/30 06:26:44;;;;;;;;;;;;;;;29.20;27.41;99405.38;5032644;28;19928;-77
2022/10/30 06:29:09;;;;;;;;;;;;;;;30.20;27.32;99391.75;5034612;28;20438;-80
2022/10/30 06:31:34;;;;;;;;;;;;;;;31.23;25.87;99395.06;5033392;28;19917;-78
2022/10/30 06:34:00;;;;;;;;;;;;;;;32.20;26.84;99393.50;5033125;28;19917;-77
2022/10/30 06:36:25;;;;;;;;;;;;;;;33.03;24.59;99398.34;5015492;28;19977;-78
2022/10/30 06:38:51;;;;;;;;;;;;;;;33.84;22.82;99399.69;5031366;28;19928;-77
2022/10/30 06:41:16;;;;;;;;;;;;;;;34.14;19.29;99395.66;5014920;28;19917;-74
2022/10/30 06:43:41;;;;;;;;;;;;;;;34.15;18.59;99403.53;5031529;28;19917;-77
2022/10/30 06:46:06;;;;;;;;;;;;;;;33.88;17.59;99398.13;5014085;28;19917;-74
2022/10/30 06:48:32;;;;;;;;;;;;;;;33.72;19.14;99402.53;5014435;28;19974;-74
2022/10/30 06:50:58;;;;;;;;;;;;;;;33.44;17.95;99398.94;5015359;28;20382;-76
2022/10/30 06:53:23;;;;;;;;;;;;;;;32.55;18.86;99391.66;5014616;28;19928;-77
2022/10/30 06:55:55;;;;;;;;;;;;;;;31.81;19.24;99392.50;5015284;28;20303;-80
2022/10/30 06:58:21;;;;;;;;;;;;;;;31.21;20.34;99397.19;5014692;28;19917;-75
2022/10/30 07:00:46;;;;;;;;;;;;;;;30.77;21.27;99385.91;5032704;28;20406;-78
2022/10/30 07:03:12;;;;;;;;;;;;;;;30.37;20.87;99387.34;5016492;28;19921;-80
2022/10/30 07:05:37;;;;;;;;;;;;;;;29.76;21.34;99391.91;5022860;28;19925;-78
2022/10/30 07:08:02;;;;;;;;;;;;;;;29.51;22.22;99394.69;5016321;28;19921;-78
2022/10/30 07:10:27;;;;;;;;;;;;;;;28.97;23.65;99387.19;5014196;28;19925;-82
2022/10/30 07:12:53;;;;;;;;;;;;;;;28.87;23.29;99389.53;5027555;28;20292;-80
2022/10/30 07:15:18;;;;;;;;;;;;;;;28.85;23.28;99397.81;5013997;28;20376;-76
2022/10/30 07:20:32;;;;;;;;;;;;;;;28.54;23.08;99389.78;5289574;22;19925;-86
2022/10/30 07:22:57;;;;;;;;;;;;;;;28.34;23.74;99388.91;5065121;28;20391;-82
2022/10/30 07:25:23;;;;;;;;;;;;;;;28.50;24.35;99387.53;5063818;28;20018;-76
2022/10/30 07:27:49;;;;;;;;;;;;;;;28.95;24.94;99385.75;5062701;28;19932;-75
2022/10/30 07:30:15;;;;;;;;;;;;;;;29.37;26.67;99385.97;5055255;28;20379;-73
2022/10/30 07:32:41;;;;;;;;;;;;;;;29.73;25.27;99374.38;5070469;28;20379;-71
2022/10/30 07:35:06;;;;;;;;;;;;;;;29.97;24.82;99371.78;5061662;28;19920;-72
2022/10/30 07:37:32;;;;;;;;;;;;;;;30.14;24.79;99377.31;5070308;28;19928;-74
2022/10/30 07:39:57;;;;;;;;;;;;;;;30.28;24.09;99381.50;5050979;28;19912;-73
2022/10/30 07:42:22;;;;;;;;;;;;;;;30.44;26.12;99371.13;5067892;28;20063;-81
2022/10/30 07:44:48;;;;;;;;;;;;;;;30.55;26.21;99383.78;5053112;28;19995;-83
2022/10/30 07:47:13;;;;;;;;;;;;;;;30.61;26.66;99372.06;5045640;28;20006;-82
2022/10/30 07:49:39;;;;;;;;;;;;;;;30.65;26.28;99367.88;5073151;28;19923;-78
2022/10/30 07:52:04;;;;;;;;;;;;;;;30.65;26.26;99364.38;5061156;28;20377;-76
2022/10/30 07:54:29;;;;;;;;;;;;;;;30.67;26.71;99368.44;5060264;28;19923;-73
2022/10/30 07:56:55;;;;;;;;;;;;;;;30.69;27.01;99362.00;5037181;28;20483;-75
2022/10/30 07:59:20;;;;;;;;;;;;;;;30.77;25.17;99356.28;5069837;28;19923;-74
2022/10/30 08:01:45;;;;;;;;;;;;;;;30.91;26.33;99359.56;5061212;28;19923;-70
2022/10/30 08:04:12;;;;;;;;;;;;;;;30.93;26.53;99360.13;5060585;28;19916;-69
2022/10/30 08:06:38;;;;;;;;;;;;;;;30.98;27.04;99358.41;5060212;28;19983;-72
2022/10/30 08:09:03;;;;;;;;;;;;;;;31.01;26.44;99349.84;5061404;28;19928;-86
2022/10/30 08:11:29;;;;;;;;;;;;;;;31.15;25.95;99349.59;5065180;28;19927;-81
2022/10/30 08:13:54;;;;;;;;;;;;;;;31.17;24.53;99342.09;5065868;28;19995;-79
2022/10/30 08:16:19;;;;;;;;;;;;;;;31.27;24.71;99347.69;5059498;28;19920;-85
2022/10/30 08:18:45;;;;;;;;;;;;;;;31.30;24.90;99347.22;5050600;28;20012;-73
2022/10/30 08:21:10;;;;;;;;;;;;;;;31.40;23.97;99343.91;5061789;28;19928;-78
2022/10/30 08:23:35;;;;;;;;;;;;;;;31.48;22.95;99340.81;5053653;28;20492;-70
2022/10/30 08:26:01;;;;;;;;;;;;;;;31.60;22.96;99340.00;5065610;28;19921;-72
2022/10/30 08:28:26;;;;;;;;;;;;;;;31.73;22.95;99339.72;5057646;28;19916;-73
2022/10/30 08:30:52;;;;;;;;;;;;;;;31.76;23.86;99355.44;5043559;28;20306;-74
2022/10/30 08:33:17;;;;;;;;;;;;;;;31.87;22.42;99348.34;5058616;28;20356;-76
2022/10/30 08:35:50;;;;;;;;;;;;;;;31.88;21.18;99342.69;5061016;28;20004;-79
2022/10/30 08:38:16;;;;;;;;;;;;;;;32.06;21.62;99348.94;5059502;28;19917;-78
2022/10/30 08:40:41;;;;;;;;;;;;;;;32.28;22.80;99338.28;5058861;28;19927;-80
2022/10/30 08:43:06;;;;;;;;;;;;;;;32.40;21.08;99346.28;5042773;28;19920;-79
2022/10/30 08:45:32;;;;;;;;;;;;;;;32.47;22.26;99344.25;5057855;28;19921;-79
2022/10/30 08:47:57;;;;;;;;;;;;;;;32.61;21.64;99340.16;5063309;28;19978;-82
2022/10/30 08:50:23;;;;;;;;;;;;;;;32.60;21.58;99337.69;5060814;28;20284;-80
2022/10/30 08:52:48;;;;;;;;;;;;;;;32.77;20.49;99335.81;5059360;28;19936;-81
2022/10/30 08:55:13;;;;;;;;;;;;;;;32.92;22.20;99340.59;5043690;28;19927;-76
2022/10/30 08:57:39;;;;;;;;;;;;;;;32.92;19.42;99331.69;5060284;28;19920;-76
2022/10/30 09:00:04;;;;;;;;;;;;;;;33.50;18.66;99332.16;5056616;28;19999;-80
2022/10/30 09:02:30;;;;;;;;;;;;;;;34.24;17.00;99328.88;5048304;28;19921;-81
2022/10/30 09:04:55;;;;;;;;;;;;;;;34.73;15.76;99327.84;5065485;28;20379;-82
2022/10/30 09:07:20;;;;;;;;;;;;;;;35.48;15.01;99333.13;5058974;28;19939;-81
2022/10/30 09:09:46;;;;;;;;;;;;;;;34.47;15.04;99324.16;5039603;28;20302;-82
2022/10/30 09:12:11;;;;;;;;;;;;;;;33.88;15.66;99322.28;5041476;28;19917;-83
2022/10/30 09:14:36;;;;;;;;;;;;;;;32.68;17.12;99314.88;5057934;28;19917;-81
2022/10/30 09:17:02;;;;;;;;;;;;;;;32.45;18.10;99324.75;5059278;28;19963;-82
2022/10/30 09:19:27;;;;;;;;;;;;;;;31.82;18.37;99316.69;5058924;28;19925;-81
2022/10/30 09:21:53;;;;;;;;;;;;;;;31.77;18.60;99315.75;5060911;28;20383;-87
2022/10/30 09:24:19;;;;;;;;;;;;;;;31.74;18.61;99308.97;5060718;28;19916;-80
2022/10/30 09:26:44;;;;;;;;;;;;;;;31.04;19.44;99302.72;5060604;28;20002;-84
2022/10/30 09:29:09;;;;;;;;;;;;;;;30.45;19.83;99300.84;5058954;28;19916;-85
2022/10/30 09:31:35;;;;;;;;;;;;;;;30.29;20.09;99298.81;5053263;28;20008;-83
2022/10/30 09:34:00;;;;;;;;;;;;;;;30.42;20.45;99295.13;5051211;28;20284;-82
2022/10/30 09:36:26;;;;;;;;;;;;;;;29.91;19.88;99294.66;5059978;28;19917;-83
2022/10/30 09:38:54;;;;;;;;;;;;;;;29.98;20.22;99294.56;5061879;28;19916;-83
2022/10/30 09:41:19;;;;;;;;;;;;;;;30.35;20.02;99292.50;5053528;28;20000;-82
2022/10/30 09:43:54;;;;;;;;;;;;;;;30.79;19.74;99284.94;5073968;28;19960;-80
2022/10/30 09:46:26;;;;;;;;;;;;;;;30.72;19.08;99278.81;5047614;28;19921;-81
2022/10/30 09:48:54;;;;;;;;;;;;;;;30.62;19.43;99276.72;5062242;28;19996;-83
2022/10/30 09:51:27;;;;;;;;;;;;;;;30.35;19.86;99270.97;5062913;28;19963;-85
2022/10/30 09:54:11;;;;;;;;;;;;;;;30.52;20.63;99267.59;5066520;28;19990;-92
2022/10/30 09:56:53;;;;;;;;;;;;;;;30.37;19.37;99263.47;5062893;28;19952;-75
2022/10/30 09:59:37;;;;;;;;;;;;;;;29.90;20.00;99253.50;5060046;28;20383;-75
2022/10/30 10:02:20;;;;;;;;;;;;;;;30.22;20.04;99247.78;5063103;28;19917;-74
2022/10/30 10:04:47;;;;;;;;;;;;;;;30.40;20.03;99248.75;5062500;28;20397;-74
2022/10/30 10:07:20;;;;;;;;;;;;;;;30.28;19.57;99249.56;5060707;28;19920;-74
2022/10/30 10:09:45;;;;;;;;;;;;;;;30.17;21.26;99253.03;5063666;28;19921;-75
2022/10/30 10:12:32;;;;;;;;;;;;;;;29.46;21.17;99247.47;5051915;28;19917;-77
2022/10/30 10:14:57;;;;;;;;;;;;;;;29.51;22.73;99244.09;5059812;28;19921;-80
2022/10/30 10:17:25;;;;;;;;;;;;;;;29.67;22.46;99239.94;5041931;28;20024;-77
2022/10/30 10:19:54;;;;;;;;;;;;;;;29.71;21.45;99233.84;5060215;28;19931;-76
2022/10/30 10:22:21;;;;;;;;;;;;;;;29.55;20.62;99239.91;5061856;28;19975;-73
2022/10/30 10:24:46;;;;;;;;;;;;;;;29.21;20.89;99232.28;5062030;28;20430;-77
2022/10/30 10:27:18;;;;;;;;;;;;;;;28.82;21.74;99225.50;5062326;28;19921;-75
2022/10/30 10:30:01;;;;;;;;;;;;;;;28.94;21.48;99231.78;5062864;28;19974;-74
2022/10/30 10:32:27;;;;;;;;;;;;;;;28.42;21.87;99226.72;5061808;28;20388;-75
2022/10/30 10:34:55;;;;;;;;;;;;;;;28.58;21.95;99219.97;5061599;28;19955;-74
2022/10/30 10:37:25;;;;;;;;;;;;;;;28.54;21.86;99216.06;5062956;28;19951;-75
2022/10/30 10:40:11;;;;;;;;;;;;;;;28.52;21.72;99210.09;5060327;28;20475;-72
2022/10/30 10:42:49;;;;;;;;;;;;;;;28.54;21.82;99213.38;5051786;28;19963;-75
2022/10/30 10:45:32;;;;;;;;;;;;;;;28.64;21.86;99204.84;5047782;28;20383;-77
2022/10/30 10:48:17;;;;;;;;;;;;;;;28.61;21.68;99197.25;5059618;28;19924;-88
2022/10/30 10:50:50;;;;;;;;;;;;;;;28.50;22.08;99201.44;5050968;28;19978;-78
2022/10/30 10:53:45;;;;;;;;;;;;;;;28.33;22.01;99198.53;5046400;28;19917;-79
2022/10/30 10:56:10;;;;;;;;;;;;;;;28.31;21.87;99190.69;5001467;28;19932;-79
2022/10/30 10:58:53;;;;;;;;;;;;;;;28.20;21.98;99178.00;5000748;28;19918;-79
2022/10/30 11:01:37;;;;;;;;;;;;;;;28.18;22.77;99187.31;4985995;28;19917;-81
2022/10/30 11:04:13;;;;;;;;;;;;;;;28.18;23.50;99176.56;5005050;28;20012;-89
2022/10/30 11:06:39;;;;;;;;;;;;;;;28.17;22.99;99174.94;5008020;28;19977;-84
2022/10/30 11:09:15;;;;;;;;;;;;;;;27.98;23.04;99178.41;5004229;28;19960;-79
2022/10/30 11:11:40;;;;;;;;;;;;;;;27.71;22.60;99171.59;5002065;28;19955;-79
2022/10/30 11:14:25;;;;;;;;;;;;;;;27.62;23.40;99162.97;5003387;28;19922;-80
2022/10/30 11:16:51;;;;;;;;;;;;;;;27.70;24.37;99160.03;5004975;28;19932;-80
2022/10/30 11:19:16;;;;;;;;;;;;;;;27.86;25.25;99158.66;4999122;28;19926;-80
2022/10/30 11:21:42;;;;;;;;;;;;;;;27.97;25.99;99152.63;4999801;28;19925;-82
2022/10/30 11:24:26;;;;;;;;;;;;;;;28.02;25.67;99149.25;4984462;28;19922;-74
2022/10/30 11:26:56;;;;;;;;;;;;;;;28.06;25.79;99149.66;5001837;28;20407;-78
2022/10/30 11:29:22;;;;;;;;;;;;;;;28.03;25.87;99145.53;4999983;28;19917;-77
2022/10/30 11:31:57;;;;;;;;;;;;;;;28.04;26.35;99151.72;4994543;28;19917;-78
2022/10/30 11:34:35;;;;;;;;;;;;;;;28.09;25.69;99144.66;5057952;28;19921;-78
2022/10/30 11:37:00;;;;;;;;;;;;;;;28.11;25.78;99144.44;5058876;28;19966;-78
2022/10/30 11:39:26;;;;;;;;;;;;;;;28.10;25.83;99140.09;5058104;28;19921;-77
2022/10/30 11:41:56;;;;;;;;;;;;;;;28.08;26.44;99129.59;5060478;28;19970;-78
2022/10/30 11:44:26;;;;;;;;;;;;;;;28.02;26.08;99129.66;5059186;28;19967;-78
2022/10/30 11:46:52;;;;;;;;;;;;;;;27.98;26.10;99123.94;5059436;28;19971;-78
2022/10/30 11:49:24;;;;;;;;;;;;;;;27.94;25.63;99122.69;5060657;28;19960;-78
2022/10/30 11:51:50;;;;;;;;;;;;;;;27.87;26.59;99124.63;5060888;28;19974;-78
2022/10/30 11:54:17;;;;;;;;;;;;;;;27.74;26.69;99121.00;5058840;28;20365;-78
2022/10/30 11:56:45;;;;;;;;;;;;;;;27.68;27.13;99113.84;5061608;28;19921;-79
2022/10/30 11:59:13;;;;;;;;;;;;;;;27.60;27.08;99111.44;5059211;28;20387;-77
2022/10/30 12:01:38;;;;;;;;;;;;;;;27.56;26.74;99110.22;5059113;28;19916;-78
2022/10/30 12:04:23;;;;;;;;;;;;;;;27.49;26.96;99102.25;5059548;28;19923;-77
2022/10/30 12:07:14;;;;;;;;;;;;;;;27.43;26.41;99092.38;5060734;28;19917;-78
2022/10/30 12:09:40;;;;;;;;;;;;;;;27.27;26.27;99089.16;4983161;28;20389;-80
2022/10/30 12:12:09;;;;;;;;;;;;;;;27.18;26.49;99090.47;4984055;28;19928;-77
2022/10/30 12:14:34;;;;;;;;;;;;;;;27.13;26.34;99081.44;5000777;28;19956;-78
2022/10/30 12:17:00;;;;;;;;;;;;;;;27.05;25.90;99082.53;4989328;28;19922;-77
2022/10/30 12:19:25;;;;;;;;;;;;;;;26.97;25.87;99078.25;4984049;28;20472;-77
2022/10/30 12:21:52;;;;;;;;;;;;;;;26.90;26.00;99080.16;4983579;28;19925;-79
2022/10/30 12:24:35;;;;;;;;;;;;;;;26.86;26.20;99073.56;4998459;28;19918;-79
2022/10/30 12:27:05;;;;;;;;;;;;;;;26.77;26.70;99074.84;4981448;28;19961;-79
2022/10/30 12:29:44;;;;;;;;;;;;;;;26.71;26.95;99074.69;4972273;28;20004;-78
2022/10/30 12:32:10;;;;;;;;;;;;;;;26.65;27.22;99080.91;4991449;28;20424;-78
2022/10/30 12:34:38;;;;;;;;;;;;;;;26.61;27.07;99068.94;4981402;28;19922;-77
2022/10/30 12:37:06;;;;;;;;;;;;;;;26.54;26.67;99066.28;4999214;28;19980;-78
2022/10/30 12:39:43;;;;;;;;;;;;;;;26.52;27.11;99068.38;4983217;28;20321;-79
2022/10/30 12:42:19;;;;;;;;;;;;;;;26.47;27.25;99070.88;4999749;28;20229;-84
2022/10/30 12:44:52;;;;;;;;;;;;;;;26.41;29.15;99062.84;4986608;28;19925;-78
2022/10/30 12:47:18;;;;;;;;;;;;;;;26.33;29.45;99059.38;5036294;28;19917;-79
2022/10/30 12:50:03;;;;;;;;;;;;;;;26.32;29.54;99070.31;5060461;28;20497;-78
2022/10/30 12:52:31;;;;;;;;;;;;;;;26.30;28.82;99065.16;4941212;29;19919;-81
2022/10/30 12:54:57;;;;;;;;;;;;;;;26.28;28.34;99063.72;4924816;29;19922;-80